createdAt,value
2023-02-06T00:00:53.637Z,52.10
2023-02-06T00:03:20.875Z,50.55
2023-02-06T00:05:58.903Z,53.35
2023-02-06T00:08:26.985Z,48.08
2023-02-06T00:10:54.712Z,50.97
2023-02-06T00:13:22.454Z,52.75
2023-02-06T00:15:49.540Z,52.15
2023-02-06T00:18:16.586Z,52.70
2023-02-06T00:20:43.513Z,53.10
2023-02-06T00:23:10.590Z,51.13
2023-02-06T00:25:37.804Z,49.75
2023-02-06T00:28:05.622Z,52.50
2023-02-06T00:30:32.700Z,51.15
2023-02-06T00:32:59.732Z,52.20
2023-02-06T00:35:26.745Z,52.30
2023-02-06T00:37:53.700Z,50.03
2023-02-06T00:40:20.786Z,49.10
2023-02-06T00:42:47.751Z,50.15
2023-02-06T00:45:14.705Z,50.72
2023-02-06T00:47:41.697Z,48.78
2023-02-06T00:50:09.025Z,48.13
2023-02-06T00:52:36.008Z,48.78
2023-02-06T00:55:03.094Z,47.58
2023-02-06T00:57:30.082Z,48.28
2023-02-06T00:59:57.039Z,46.50
2023-02-06T01:02:24.107Z,46.25
2023-02-06T01:04:51.103Z,49.30
2023-02-06T01:07:18.031Z,48.78
2023-02-06T01:09:44.995Z,49.80
2023-02-06T01:12:12.005Z,47.40
2023-02-06T01:14:39.181Z,50.20
2023-02-06T01:17:06.282Z,58.90
2023-02-06T01:19:33.280Z,51.15
2023-02-06T01:22:00.305Z,51.53
2023-02-06T01:24:27.323Z,54.30
2023-02-06T01:26:54.313Z,50.90
2023-02-06T01:29:21.327Z,51.42
2023-02-06T01:31:48.304Z,53.00
2023-02-06T01:34:15.240Z,48.50
2023-02-06T01:36:42.206Z,50.67
2023-02-06T01:39:10.282Z,44.80
2023-02-06T01:41:37.268Z,49.72
2023-02-06T01:44:16.439Z,50.35
2023-02-06T01:46:49.106Z,58.20
2023-02-06T01:49:36.699Z,58.22
2023-02-06T01:52:07.802Z,51.38
2023-02-06T01:54:35.255Z,51.67
2023-02-06T01:57:06.820Z,50.53
2023-02-06T01:59:35.321Z,50.00
2023-02-06T02:02:03.380Z,50.83
2023-02-06T02:04:33.520Z,52.97
2023-02-06T02:07:24.360Z,112.75
2023-02-06T02:09:51.894Z,44.63
2023-02-06T02:12:19.766Z,43.63
2023-02-06T02:14:49.356Z,45.92
2023-02-06T02:17:53.948Z,44.17
2023-02-06T02:20:40.282Z,44.13
2023-02-06T02:23:22.561Z,42.15
2023-02-06T02:26:26.624Z,45.03
2023-02-06T02:29:02.333Z,63.90
2023-02-06T02:31:50.333Z,45.88
2023-02-06T02:34:54.457Z,35.35
2023-02-06T02:37:47.363Z,32.25
2023-02-06T02:40:28.507Z,34.92
2023-02-06T02:43:14.024Z,36.00
2023-02-06T02:45:57.528Z,35.25
2023-02-06T02:48:29.943Z,37.45
2023-02-06T02:50:58.782Z,36.85
2023-02-06T02:53:26.810Z,42.20
2023-02-06T02:55:53.815Z,40.95
2023-02-06T02:58:29.083Z,38.25
2023-02-06T03:01:03.966Z,35.40
2023-02-06T03:03:32.605Z,52.63
2023-02-06T03:05:59.540Z,35.60
2023-02-06T03:08:40.835Z,55.20
2023-02-06T03:11:17.317Z,41.85
2023-02-06T03:14:06.128Z,36.42
2023-02-06T03:17:01.233Z,37.08
2023-02-06T03:19:37.818Z,35.85
2023-02-06T03:22:05.817Z,35.83
2023-02-06T03:24:36.626Z,39.55
2023-02-06T03:27:09.756Z,36.50
2023-02-06T03:29:39.652Z,34.53
2023-02-06T03:32:12.744Z,41.75
2023-02-06T03:35:01.973Z,38.20
2023-02-06T03:37:29.864Z,38.70
2023-02-06T03:39:59.315Z,39.60
2023-02-06T03:42:28.420Z,41.60
2023-02-06T03:45:00.890Z,37.78
2023-02-06T03:47:30.088Z,38.42
2023-02-06T03:50:00.410Z,41.53
2023-02-06T03:52:36.468Z,45.13
2023-02-06T03:55:09.357Z,85.78
2023-02-06T03:57:37.430Z,99.15
2023-02-06T04:00:05.706Z,145.00
2023-02-06T04:02:33.349Z,143.32
2023-02-06T04:05:00.370Z,137.63
2023-02-06T04:07:29.992Z,66.93
2023-02-06T04:09:56.984Z,48.45
2023-02-06T04:12:24.843Z,70.53
2023-02-06T04:14:52.658Z,43.88
2023-02-06T04:17:38.523Z,85.57
2023-02-06T04:20:07.051Z,74.68
2023-02-06T04:22:34.023Z,67.15
2023-02-06T04:25:01.042Z,74.60
2023-02-06T04:27:28.075Z,67.22
2023-02-06T04:29:55.033Z,49.42
2023-02-06T04:32:22.063Z,73.45
2023-02-06T04:34:49.033Z,47.15
2023-02-06T04:37:16.018Z,86.75
2023-02-06T04:39:43.017Z,71.38
2023-02-06T04:42:10.000Z,74.95
2023-02-06T04:44:38.587Z,51.80
2023-02-06T04:47:05.721Z,47.28
2023-02-06T04:49:32.783Z,47.92
2023-02-06T04:51:59.823Z,47.28
2023-02-06T04:54:26.749Z,42.47
2023-02-06T04:56:53.785Z,46.10
2023-02-06T04:59:20.762Z,45.63
2023-02-06T05:01:48.324Z,59.13
2023-02-06T05:04:15.409Z,41.88
2023-02-06T05:06:42.405Z,44.72
2023-02-06T05:09:10.039Z,57.58
2023-02-06T05:11:37.028Z,61.42
2023-02-06T05:14:04.066Z,60.85
2023-02-06T05:16:31.098Z,69.10
2023-02-06T05:18:58.436Z,49.42
2023-02-06T05:21:26.090Z,53.58
2023-02-06T05:23:53.182Z,46.33
2023-02-06T05:26:20.664Z,70.25
2023-02-06T05:28:47.863Z,46.80
2023-02-06T05:31:19.813Z,50.63
2023-02-06T05:33:52.483Z,51.65
2023-02-06T05:36:20.787Z,56.42
2023-02-06T05:38:48.902Z,53.08
2023-02-06T05:41:16.814Z,58.33
2023-02-06T05:43:44.068Z,48.90
2023-02-06T05:46:13.070Z,42.47
2023-02-06T05:48:40.840Z,49.28
2023-02-06T05:51:07.938Z,67.60
2023-02-06T05:53:34.855Z,74.30
2023-02-06T05:56:02.240Z,69.55
2023-02-06T05:58:29.211Z,69.53
2023-02-06T06:00:56.265Z,77.25
2023-02-06T06:03:23.287Z,54.00
2023-02-06T06:05:50.322Z,51.95
2023-02-06T06:08:17.295Z,47.50
2023-02-06T06:10:44.382Z,52.15
2023-02-06T06:13:11.528Z,50.60
2023-02-06T06:15:38.707Z,49.45
2023-02-06T06:18:05.889Z,51.38
2023-02-06T06:20:32.871Z,57.60
2023-02-06T06:22:59.999Z,47.58
2023-02-06T06:25:27.085Z,51.58
2023-02-06T06:27:54.222Z,47.05
2023-02-06T06:30:21.309Z,46.83
2023-02-06T06:32:48.399Z,47.30
2023-02-06T06:35:15.482Z,45.65
2023-02-06T06:37:42.557Z,47.30
2023-02-06T06:40:10.381Z,45.85
2023-02-06T06:42:37.477Z,54.67
2023-02-06T06:45:05.054Z,46.72
2023-02-06T06:47:32.306Z,47.47
2023-02-06T06:49:59.299Z,49.05
2023-02-06T06:52:26.399Z,50.10
2023-02-06T06:54:54.182Z,49.85
2023-02-06T06:57:22.397Z,48.25
2023-02-06T06:59:49.971Z,45.03
2023-02-06T07:02:17.633Z,44.72
2023-02-06T07:04:44.787Z,43.60
2023-02-06T07:07:11.869Z,45.20
2023-02-06T07:09:38.980Z,43.90
2023-02-06T07:12:06.531Z,42.75
2023-02-06T07:14:33.518Z,51.25
2023-02-06T07:17:01.853Z,46.88
2023-02-06T07:19:28.935Z,55.88
2023-02-06T07:21:56.118Z,52.50
2023-02-06T07:24:23.129Z,48.10
2023-02-06T07:26:50.182Z,48.35
2023-02-06T07:29:17.291Z,47.53
2023-02-06T07:31:44.326Z,47.20
2023-02-06T07:34:11.480Z,48.10
2023-02-06T07:36:38.551Z,46.05
2023-02-06T07:39:05.761Z,45.08
2023-02-06T07:41:32.838Z,46.28
2023-02-06T07:43:59.941Z,44.70
2023-02-06T07:46:27.045Z,45.20
2023-02-06T07:48:54.237Z,41.58
2023-02-06T07:51:21.290Z,43.15
2023-02-06T07:53:48.997Z,39.20
2023-02-06T07:56:18.540Z,45.00
2023-02-06T07:58:47.417Z,50.05
2023-02-06T08:01:14.483Z,66.13
2023-02-06T08:03:41.563Z,46.75
2023-02-06T08:06:14.707Z,51.30
2023-02-06T08:08:42.454Z,32.55
2023-02-06T08:11:11.891Z,41.60
2023-02-06T08:13:38.894Z,40.03
2023-02-06T08:16:08.055Z,35.72
2023-02-06T08:18:35.112Z,35.72
2023-02-06T08:21:07.101Z,33.35
2023-02-06T08:23:34.191Z,33.88
2023-02-06T08:26:06.527Z,45.75
2023-02-06T08:28:35.319Z,38.03
2023-02-06T08:31:09.742Z,34.13
2023-02-06T08:33:37.131Z,32.83
2023-02-06T08:36:05.633Z,35.65
2023-02-06T08:38:32.793Z,32.42
2023-02-06T08:40:59.840Z,38.67
2023-02-06T08:43:27.066Z,35.95
2023-02-06T08:45:57.499Z,34.97
2023-02-06T08:48:24.490Z,33.00
2023-02-06T08:50:51.537Z,33.83
2023-02-06T08:53:18.475Z,39.25
2023-02-06T08:55:45.454Z,40.72
2023-02-06T08:58:12.395Z,38.55
2023-02-06T09:00:39.437Z,31.48
2023-02-06T09:03:06.379Z,36.35
2023-02-06T09:05:33.328Z,35.95
2023-02-06T09:08:01.367Z,35.45
2023-02-06T09:10:28.444Z,32.53
2023-02-06T09:12:56.764Z,34.67
2023-02-06T09:15:23.990Z,34.25
2023-02-06T09:17:50.954Z,32.78
2023-02-06T09:20:18.097Z,32.22
2023-02-06T09:22:45.188Z,33.65
2023-02-06T09:25:12.257Z,30.60
2023-02-06T09:27:39.240Z,30.58
2023-02-06T09:30:06.662Z,32.92
2023-02-06T09:32:33.734Z,28.70
2023-02-06T09:35:01.398Z,30.73
2023-02-06T09:37:28.423Z,29.58
2023-02-06T09:39:55.360Z,31.80
2023-02-06T09:42:42.909Z,33.83
2023-02-06T09:45:16.952Z,33.40
2023-02-06T09:47:55.811Z,26.90
2023-02-06T09:50:37.837Z,28.85
2023-02-06T09:53:07.727Z,30.25
2023-02-06T09:55:55.096Z,29.70
2023-02-06T09:58:42.230Z,26.88
2023-02-06T10:01:34.921Z,27.48
2023-02-06T10:04:13.191Z,29.60
2023-02-06T10:07:04.660Z,31.38
2023-02-06T10:09:55.697Z,28.17
2023-02-06T10:12:30.007Z,26.10
2023-02-06T10:15:09.828Z,27.52
2023-02-06T10:17:52.676Z,29.13
2023-02-06T10:20:30.593Z,29.58
2023-02-06T10:23:13.057Z,29.27
2023-02-06T10:25:46.318Z,27.30
2023-02-06T10:28:22.201Z,28.90
2023-02-06T10:31:13.621Z,25.05
2023-02-06T10:33:59.154Z,27.63
2023-02-06T10:36:49.191Z,25.95
2023-02-06T10:39:32.985Z,25.52
2023-02-06T10:42:24.091Z,24.73
2023-02-06T10:45:20.415Z,24.60
2023-02-06T10:47:57.553Z,24.42
2023-02-06T10:50:33.096Z,24.40
2023-02-06T10:53:13.076Z,23.77
2023-02-06T10:56:03.192Z,23.77
2023-02-06T10:58:37.320Z,23.65
2023-02-06T11:01:20.094Z,23.40
2023-02-06T11:04:10.825Z,29.27
2023-02-06T11:06:40.470Z,24.88
2023-02-06T11:09:07.475Z,42.50
2023-02-06T11:11:40.934Z,27.92
2023-02-06T11:14:16.951Z,25.17
2023-02-06T11:16:44.831Z,23.75
2023-02-06T11:19:31.872Z,29.30
2023-02-06T11:22:05.026Z,25.80
2023-02-06T11:24:32.022Z,26.13
2023-02-06T11:27:01.979Z,24.80
2023-02-06T11:29:37.169Z,25.20
2023-02-06T11:32:24.237Z,26.20
2023-02-06T11:34:59.225Z,26.15
2023-02-06T11:37:44.689Z,22.20
2023-02-06T11:40:17.902Z,22.55
2023-02-06T11:42:52.750Z,24.65
2023-02-06T11:45:32.048Z,21.05
2023-02-06T11:48:00.423Z,20.92
2023-02-06T11:50:36.257Z,21.60
2023-02-06T11:53:11.057Z,21.52
2023-02-06T11:55:39.944Z,25.23
2023-02-06T11:58:12.744Z,22.33
2023-02-06T12:01:16.165Z,22.92
2023-02-06T12:03:49.258Z,22.70
2023-02-06T12:06:40.402Z,23.48
2023-02-06T12:09:12.703Z,22.15
2023-02-06T12:11:59.029Z,23.90
2023-02-06T12:14:47.449Z,26.38
2023-02-06T12:17:44.002Z,24.00
2023-02-06T12:20:21.728Z,29.98
2023-02-06T12:22:59.286Z,38.28
2023-02-06T12:25:36.339Z,40.55
2023-02-06T12:28:26.150Z,34.50
2023-02-06T12:30:59.343Z,33.33
2023-02-06T12:33:40.956Z,26.90
2023-02-06T12:36:20.903Z,26.23
2023-02-06T12:38:59.789Z,28.63
2023-02-06T12:41:55.621Z,27.27
2023-02-06T12:44:45.594Z,23.90
2023-02-06T12:47:15.604Z,26.65
2023-02-06T12:49:49.856Z,26.00
2023-02-06T12:52:31.177Z,23.40
2023-02-06T12:55:12.193Z,23.30
2023-02-06T12:57:40.001Z,23.08
2023-02-06T13:00:28.513Z,22.35
2023-02-06T13:03:31.267Z,22.80
2023-02-06T13:06:12.654Z,22.58
2023-02-06T13:09:01.141Z,23.80
2023-02-06T13:11:39.236Z,22.60
2023-02-06T13:14:24.989Z,22.33
2023-02-06T13:17:00.965Z,22.02
2023-02-06T13:19:51.170Z,22.40
2023-02-06T13:22:23.280Z,22.17
2023-02-06T13:24:51.455Z,25.88
2023-02-06T13:27:25.931Z,24.08
2023-02-06T13:29:54.136Z,22.20
2023-02-06T13:32:24.197Z,23.13
2023-02-06T13:35:01.685Z,24.10
2023-02-06T13:37:39.129Z,22.83
2023-02-06T13:40:14.481Z,24.60
2023-02-06T13:42:56.916Z,22.73
2023-02-06T13:45:36.330Z,29.70
2023-02-06T13:48:20.898Z,24.25
2023-02-06T13:51:12.876Z,27.10
2023-02-06T13:53:54.951Z,24.85
2023-02-06T13:56:46.579Z,33.35
2023-02-06T13:59:25.448Z,30.95
2023-02-06T14:01:53.661Z,26.38
2023-02-06T14:04:27.256Z,36.58
2023-02-06T14:07:27.296Z,33.22
2023-02-06T14:10:19.220Z,33.45
2023-02-06T14:13:22.564Z,25.55
2023-02-06T14:15:55.710Z,24.00
2023-02-06T14:18:38.436Z,26.23
2023-02-06T14:21:35.490Z,24.58
2023-02-06T14:24:08.664Z,23.05
2023-02-06T14:27:09.765Z,23.02
2023-02-06T14:29:44.979Z,23.40
2023-02-06T14:32:39.996Z,23.75
2023-02-06T14:35:25.134Z,25.70
2023-02-06T14:38:21.226Z,22.85
2023-02-06T14:40:52.705Z,24.08
2023-02-06T14:43:24.847Z,30.10
2023-02-06T14:46:06.731Z,24.70
2023-02-06T14:48:56.390Z,27.00
2023-02-06T14:51:34.636Z,25.85
2023-02-06T14:54:04.747Z,25.63
2023-02-06T14:56:37.189Z,28.45
2023-02-06T14:59:13.169Z,28.05
2023-02-06T15:01:41.812Z,30.85
2023-02-06T15:04:15.242Z,29.92
2023-02-06T15:06:51.134Z,25.15
2023-02-06T15:09:27.046Z,26.85
2023-02-06T15:11:56.958Z,37.75
2023-02-06T15:14:31.850Z,34.60
2023-02-06T15:17:01.018Z,31.00
2023-02-06T15:19:31.142Z,29.13
2023-02-06T15:22:15.921Z,27.35
2023-02-06T15:25:04.920Z,33.70
2023-02-06T15:27:37.738Z,29.10
2023-02-06T15:30:20.864Z,28.38
2023-02-06T15:32:53.229Z,29.70
2023-02-06T15:35:32.327Z,30.33
2023-02-06T15:38:10.453Z,30.42
2023-02-06T15:40:44.680Z,31.02
2023-02-06T15:43:20.434Z,35.10
2023-02-06T15:45:50.040Z,31.17
2023-02-06T15:48:30.104Z,26.48
2023-02-06T15:51:08.068Z,33.60
2023-02-06T15:53:40.938Z,27.92
2023-02-06T15:56:32.258Z,33.73
2023-02-06T15:59:05.258Z,28.98
2023-02-06T16:01:39.929Z,24.52
2023-02-06T16:04:13.603Z,28.25
2023-02-06T16:06:41.472Z,37.15
2023-02-06T16:09:15.992Z,32.78
2023-02-06T16:11:51.111Z,39.78
2023-02-06T16:14:26.789Z,48.63
2023-02-06T16:17:08.297Z,45.60
2023-02-06T16:19:54.514Z,46.08
2023-02-06T16:22:21.485Z,36.65
2023-02-06T16:24:49.950Z,32.85
2023-02-06T16:27:26.858Z,36.85
2023-02-06T16:29:56.481Z,32.25
2023-02-06T16:32:28.480Z,33.90
2023-02-06T16:34:56.189Z,37.33
2023-02-06T16:37:25.131Z,36.20
2023-02-06T16:39:52.715Z,39.05
2023-02-06T16:42:32.576Z,37.40
2023-02-06T16:45:01.944Z,34.97
2023-02-06T16:47:29.088Z,34.60
2023-02-06T16:49:56.477Z,36.28
2023-02-06T16:52:26.536Z,34.47
2023-02-06T16:55:01.230Z,36.42
2023-02-06T16:57:33.260Z,33.72
2023-02-06T17:00:00.299Z,34.80
2023-02-06T17:02:28.275Z,40.55
2023-02-06T17:04:55.582Z,38.97
2023-02-06T17:07:25.719Z,38.08
2023-02-06T17:09:55.268Z,39.72
2023-02-06T17:12:22.700Z,38.60
2023-02-06T17:14:49.801Z,37.67
2023-02-06T17:17:19.560Z,35.90
2023-02-06T17:19:47.850Z,39.75
2023-02-06T17:22:15.089Z,38.28
2023-02-06T17:24:42.613Z,35.92
2023-02-06T17:27:15.561Z,37.47
2023-02-06T17:29:42.557Z,39.90
2023-02-06T17:32:09.687Z,43.03
2023-02-06T17:34:39.979Z,50.38
2023-02-06T17:37:08.210Z,47.55
2023-02-06T17:39:36.019Z,45.05
2023-02-06T17:42:03.207Z,42.10
2023-02-06T17:44:30.265Z,40.22
2023-02-06T17:46:57.420Z,37.38
2023-02-06T17:49:24.430Z,39.25
2023-02-06T17:51:52.065Z,40.90
2023-02-06T17:54:19.159Z,41.33
2023-02-06T17:56:46.169Z,43.15
2023-02-06T17:59:13.163Z,38.47
2023-02-06T18:01:40.211Z,42.20
2023-02-06T18:04:07.424Z,39.63
2023-02-06T18:06:36.454Z,36.35
2023-02-06T18:09:03.824Z,36.80
2023-02-06T18:11:31.626Z,36.10
2023-02-06T18:13:59.154Z,38.53
2023-02-06T18:16:28.813Z,36.83
2023-02-06T18:18:55.859Z,37.95
2023-02-06T18:21:24.699Z,38.72
2023-02-06T18:23:53.197Z,39.92
2023-02-06T18:26:20.187Z,40.50
2023-02-06T18:28:47.460Z,34.05
2023-02-06T18:31:29.617Z,36.50
2023-02-06T18:33:57.702Z,51.15
2023-02-06T18:36:25.475Z,53.67
2023-02-06T18:38:53.728Z,65.00
2023-02-06T18:41:39.686Z,60.60
2023-02-06T18:44:09.499Z,49.88
2023-02-06T18:46:38.009Z,51.47
2023-02-06T18:49:05.921Z,41.47
2023-02-06T18:51:33.500Z,38.60
2023-02-06T18:54:00.742Z,35.75
2023-02-06T18:56:28.147Z,37.22
2023-02-06T18:58:55.270Z,36.85
2023-02-06T19:01:24.694Z,38.42
2023-02-06T19:03:55.134Z,38.50
2023-02-06T19:06:24.765Z,37.70
2023-02-06T19:08:51.755Z,36.67
2023-02-06T19:11:18.825Z,38.08
2023-02-06T19:13:45.936Z,33.90
2023-02-06T19:16:16.522Z,35.78
2023-02-06T19:18:46.024Z,38.22
2023-02-06T19:21:16.985Z,38.72
2023-02-06T19:23:45.227Z,40.78
2023-02-06T19:26:15.186Z,35.45
2023-02-06T19:28:43.703Z,38.97
2023-02-06T19:31:12.732Z,36.72
2023-02-06T19:33:41.257Z,38.47
2023-02-06T19:36:14.363Z,36.53
2023-02-06T19:38:42.016Z,41.13
2023-02-06T19:41:18.569Z,38.03
2023-02-06T19:43:45.558Z,42.08
2023-02-06T19:46:15.693Z,39.85
2023-02-06T19:48:45.603Z,39.38
2023-02-06T19:51:20.457Z,39.47
2023-02-06T19:53:48.998Z,37.72
2023-02-06T19:56:34.742Z,38.70
2023-02-06T19:59:04.901Z,40.40
2023-02-06T20:01:32.140Z,42.20
2023-02-06T20:04:00.881Z,46.10
2023-02-06T20:06:30.766Z,50.70
2023-02-06T20:08:58.099Z,45.78
2023-02-06T20:11:25.168Z,49.45
2023-02-06T20:13:53.999Z,48.47
2023-02-06T20:16:27.006Z,46.65
2023-02-06T20:18:54.958Z,41.75
2023-02-06T20:21:26.775Z,43.40
2023-02-06T20:23:55.573Z,41.28
2023-02-06T20:26:24.689Z,41.53
2023-02-06T20:28:52.237Z,38.35
2023-02-06T20:31:19.958Z,35.28
2023-02-06T20:33:47.875Z,35.13
2023-02-06T20:36:18.249Z,34.40
2023-02-06T20:38:50.303Z,30.45
2023-02-06T20:41:17.701Z,25.85
2023-02-06T20:43:47.922Z,24.10
2023-02-06T20:46:18.496Z,23.13
2023-02-06T20:48:46.876Z,22.27
2023-02-06T20:51:14.857Z,21.20
2023-02-06T20:53:41.862Z,20.67
2023-02-06T20:56:11.902Z,22.08
2023-02-06T20:58:39.323Z,21.42
2023-02-06T21:01:20.535Z,21.10
2023-02-06T21:03:47.979Z,21.10
2023-02-06T21:06:15.221Z,23.65
2023-02-06T21:08:45.018Z,23.25
2023-02-06T21:11:12.140Z,23.25
2023-02-06T21:13:40.734Z,22.75
2023-02-06T21:16:08.611Z,23.50
2023-02-06T21:18:35.749Z,24.08
2023-02-06T21:21:09.555Z,23.00
2023-02-06T21:23:37.648Z,25.67
2023-02-06T21:26:06.318Z,31.13
2023-02-06T21:28:35.352Z,26.88
2023-02-06T21:31:04.937Z,30.20
2023-02-06T21:33:32.299Z,26.77
2023-02-06T21:36:00.827Z,25.02
2023-02-06T21:38:27.828Z,29.70
2023-02-06T21:40:54.853Z,24.65
2023-02-06T21:43:21.871Z,26.15
2023-02-06T21:45:48.925Z,28.05
2023-02-06T21:48:15.921Z,25.92
2023-02-06T21:50:44.927Z,28.38
2023-02-06T21:53:12.007Z,32.63
2023-02-06T21:55:43.171Z,30.70
2023-02-06T21:58:11.369Z,31.88
2023-02-06T22:00:38.434Z,32.97
2023-02-06T22:03:05.392Z,31.20
2023-02-06T22:05:32.453Z,32.53
2023-02-06T22:07:59.461Z,30.00
2023-02-06T22:10:26.581Z,34.03
2023-02-06T22:12:53.656Z,32.05
2023-02-06T22:15:20.614Z,34.78
2023-02-06T22:17:47.613Z,32.42
2023-02-06T22:20:16.401Z,37.92
2023-02-06T22:22:43.446Z,35.40
2023-02-06T22:25:11.860Z,34.08
2023-02-06T22:27:39.235Z,34.30
2023-02-06T22:30:07.694Z,35.00
2023-02-06T22:32:39.418Z,35.63
2023-02-06T22:35:07.527Z,37.30
2023-02-06T22:37:35.254Z,34.83
2023-02-06T22:40:02.188Z,39.47
2023-02-06T22:42:29.249Z,40.08
2023-02-06T22:44:56.312Z,33.75
2023-02-06T22:47:23.329Z,36.00
2023-02-06T22:49:52.634Z,33.83
2023-02-06T22:52:38.114Z,34.13
2023-02-06T22:55:05.941Z,37.72
2023-02-06T22:57:35.343Z,35.83
2023-02-06T23:00:02.419Z,37.03
2023-02-06T23:02:29.460Z,38.45
2023-02-06T23:04:56.693Z,36.40
2023-02-06T23:07:23.677Z,35.40
2023-02-06T23:09:50.702Z,39.58
2023-02-06T23:12:17.803Z,39.65
2023-02-06T23:14:44.792Z,41.22
2023-02-06T23:17:11.858Z,42.40
2023-02-06T23:19:40.047Z,44.80
2023-02-06T23:22:07.211Z,41.97
2023-02-06T23:24:34.249Z,35.10
2023-02-06T23:27:01.251Z,37.58
2023-02-06T23:29:28.335Z,46.15
2023-02-06T23:31:55.764Z,39.40
2023-02-06T23:34:24.647Z,46.92
2023-02-06T23:36:52.139Z,44.88
2023-02-06T23:39:19.492Z,45.58
2023-02-06T23:41:46.585Z,46.63
2023-02-06T23:44:13.584Z,47.83
2023-02-06T23:46:41.311Z,45.85
2023-02-06T23:49:12.728Z,50.45
2023-02-06T23:51:39.769Z,49.72
2023-02-06T23:54:08.139Z,40.78
2023-02-06T23:56:35.373Z,50.45
2023-02-06T23:59:04.047Z,76.50
